Time;durP1;ratioP1;P1;durP2;ratioP2;P2;SDS_P1;SDS_P2;PMS_P1;PMS_P2;Temp;Humidity;BMP_temperature;BMP_pressure;BME280_temperature;BME280_humidity;BME280_pressure;Samples;Min_cycle;Max_cycle;Signal;HPM_P1;HPM_P2
2021/12/06 00:01:42;;;;;;;344.13;61.80;;;-0.70;99.90;;;;;;4191139;28;20488;-46
2021/12/06 00:03:57;;;;;;;133.95;56.85;;;-0.90;99.90;;;;;;4192946;28;20128;-46
2021/12/06 00:05:59;;;;;;;73.68;55.03;;;-1.00;99.90;;;;;;4195067;28;20033;-46
2021/12/06 00:08:03;;;;;;;62.03;54.55;;;-1.00;99.90;;;;;;4195091;28;20128;-46
2021/12/06 00:10:09;;;;;;;71.38;52.00;;;-1.00;99.90;;;;;;4193617;28;20029;-45
2021/12/06 00:12:12;;;;;;;55.38;48.65;;;-1.00;99.90;;;;;;4175467;28;20095;-46
2021/12/06 00:14:14;;;;;;;57.55;51.28;;;-0.90;99.90;;;;;;4187774;28;20052;-45
2021/12/06 00:16:22;;;;;;;52.47;47.50;;;-0.90;99.90;;;;;;4196238;28;20042;-44
2021/12/06 00:18:24;;;;;;;95.38;52.97;;;-0.90;99.90;;;;;;4192862;28;20220;-46
2021/12/06 00:20:27;;;;;;;210.20;51.28;;;-0.90;99.90;;;;;;4188916;28;20045;-46
2021/12/06 00:22:29;;;;;;;;;;;-1.00;99.90;;;;;;4187239;28;20044;-46
2021/12/06 00:24:31;;;;;;;262.40;49.67;;;-1.00;99.90;;;;;;4193561;28;20050;-45
2021/12/06 00:26:33;;;;;;;313.02;53.22;;;-1.10;99.90;;;;;;4192628;28;20515;-46
2021/12/06 00:28:40;;;;;;;185.15;49.83;;;-1.00;99.90;;;;;;4194879;28;20036;-46
2021/12/06 00:30:42;;;;;;;145.77;50.90;;;-1.00;99.90;;;;;;4194054;28;20695;-46
2021/12/06 00:32:46;;;;;;;59.90;41.42;;;-1.00;99.90;;;;;;4182454;28;20037;-46
2021/12/06 00:34:48;;;;;;;44.05;39.92;;;-1.00;99.90;;;;;;4177229;28;20106;-45
2021/12/06 00:36:54;;;;;;;48.70;43.13;;;-0.90;99.90;;;;;;4194750;28;20041;-46
2021/12/06 00:38:57;;;;;;;42.78;39.20;;;-0.90;99.90;;;;;;4194451;28;20044;-46
2021/12/06 00:41:01;;;;;;;39.75;36.80;;;-0.90;99.90;;;;;;4195944;28;20102;-45
2021/12/06 00:43:04;;;;;;;43.90;37.70;;;-0.90;99.90;;;;;;4193203;28;20047;-45
2021/12/06 00:45:13;;;;;;;121.35;46.92;;;-0.90;99.90;;;;;;4194747;28;20041;-45
2021/12/06 00:47:15;;;;;;;143.18;48.08;;;-0.90;99.90;;;;;;4191844;28;20036;-47
2021/12/06 00:49:18;;;;;;;225.27;49.53;;;-1.00;99.90;;;;;;4194508;28;20028;-45
2021/12/06 00:51:20;;;;;;;139.50;46.97;;;-1.10;99.90;;;;;;4191948;28;20041;-45
2021/12/06 00:53:22;;;;;;;132.02;43.28;;;-1.10;99.90;;;;;;4195163;28;20565;-44
2021/12/06 00:55:25;;;;;;;112.45;43.47;;;-1.10;99.90;;;;;;4193591;28;20098;-45
2021/12/06 00:57:27;;;;;;;104.22;41.42;;;-1.10;99.90;;;;;;4192381;28;20405;-47
2021/12/06 00:59:29;;;;;;;106.22;43.00;;;-1.10;99.90;;;;;;4193929;28;20382;-46
2021/12/06 01:01:32;;;;;;;132.18;45.83;;;-1.00;99.90;;;;;;4183670;28;20045;-47
2021/12/06 01:03:38;;;;;;;122.30;46.70;;;-1.10;99.90;;;;;;4191940;28;20132;-45
2021/12/06 01:05:41;;;;;;;106.90;45.05;;;-1.10;99.90;;;;;;4166914;28;20037;-45
2021/12/06 01:07:43;;;;;;;405.48;58.83;;;-1.10;99.90;;;;;;4194095;28;20166;-45
2021/12/06 01:09:45;;;;;;;142.80;46.17;;;-1.10;99.90;;;;;;4189109;28;20045;-45
2021/12/06 01:11:47;;;;;;;127.35;42.58;;;-1.20;99.90;;;;;;4190982;28;20082;-45
2021/12/06 01:13:50;;;;;;;55.88;39.65;;;-1.20;99.90;;;;;;4194815;28;20070;-47
2021/12/06 01:15:58;;;;;;;40.95;38.30;;;-1.20;99.90;;;;;;4192768;28;20496;-46
2021/12/06 01:18:11;;;;;;;42.22;39.35;;;-1.20;99.90;;;;;;4181773;28;20040;-46
2021/12/06 01:20:22;;;;;;;43.10;40.38;;;-1.00;99.90;;;;;;4175873;28;20516;-46
2021/12/06 01:22:30;;;;;;;42.15;38.97;;;-1.00;99.90;;;;;;4193999;28;20044;-45
2021/12/06 01:24:40;;;;;;;42.15;39.28;;;-0.90;99.90;;;;;;4192044;28;20059;-44
2021/12/06 01:29:36;;;;;;;42.72;39.42;;;-0.80;99.90;;;;;;4194040;28;20033;-45
2021/12/06 01:40:26;;;;;;;45.17;41.83;;;-0.90;99.90;;;;;;4193783;28;20041;-49
2021/12/06 01:42:29;;;;;;;43.22;39.95;;;-0.90;99.90;;;;;;4194086;28;20875;-46
2021/12/06 01:44:45;;;;;;;41.65;38.65;;;-1.00;99.90;;;;;;4193273;28;20049;-46
2021/12/06 01:46:54;;;;;;;42.15;39.20;;;-0.90;99.90;;;;;;4192325;28;20559;-45
2021/12/06 01:48:57;;;;;;;44.78;41.10;;;-0.90;99.90;;;;;;4192342;28;20040;-47
2021/12/06 01:50:59;;;;;;;46.53;42.40;;;-0.90;99.90;;;;;;4177795;28;20037;-44
2021/12/06 01:53:03;;;;;;;45.95;42.58;;;-0.90;99.90;;;;;;4175798;28;20037;-46
2021/12/06 01:55:09;;;;;;;45.05;41.88;;;-1.00;99.90;;;;;;4177048;28;20048;-46
2021/12/06 01:57:12;;;;;;;44.22;40.60;;;-1.10;99.90;;;;;;4168663;28;20091;-46
2021/12/06 01:59:15;;;;;;;44.17;40.60;;;-1.00;99.90;;;;;;4166644;28;20071;-47
2021/12/06 02:01:17;;;;;;;49.60;45.05;;;-1.10;99.90;;;;;;4177931;28;20803;-50
2021/12/06 02:03:22;;;;;;;58.97;46.28;;;-1.10;99.90;;;;;;4176006;28;20036;-50
2021/12/06 02:05:25;;;;;;;44.15;40.88;;;-1.20;99.90;;;;;;4169426;28;20493;-52
2021/12/06 02:07:27;;;;;;;46.78;42.83;;;-1.20;99.90;;;;;;4168808;28;20037;-53
2021/12/06 02:09:30;;;;;;;37.83;35.35;;;-1.10;99.90;;;;;;4176941;28;20095;-52
2021/12/06 02:11:40;;;;;;;34.53;32.35;;;-1.10;99.90;;;;;;4175344;28;20741;-52
2021/12/06 02:14:30;;;;;;;37.75;35.08;;;-1.00;99.90;;;;;;4171330;28;20148;-51
2021/12/06 02:16:08;;;;;;;36.20;34.08;;;-1.00;99.90;;;;;;4165871;28;20115;-50
2021/12/06 02:18:27;;;;;;;33.88;31.75;;;-1.00;99.90;;;;;;4176539;28;20033;-50
2021/12/06 02:20:30;;;;;;;33.97;31.95;;;-0.90;99.90;;;;;;4153923;28;20087;-55
2021/12/06 02:22:37;;;;;;;32.30;30.08;;;-0.90;99.90;;;;;;4170218;28;20091;-49
2021/12/06 02:24:40;;;;;;;32.78;31.05;;;-0.90;99.90;;;;;;4175979;28;20087;-52
2021/12/06 02:26:43;;;;;;;32.90;31.23;;;-0.90;99.90;;;;;;4176899;28;20577;-50
2021/12/06 02:28:45;;;;;;;32.03;30.52;;;-0.90;99.90;;;;;;4173123;28;20037;-52
2021/12/06 02:30:52;;;;;;;34.13;32.28;;;-0.90;99.90;;;;;;4163278;28;20095;-51
2021/12/06 02:32:55;;;;;;;34.45;32.40;;;-0.90;99.90;;;;;;4174192;28;20043;-49
2021/12/06 02:34:57;;;;;;;;;;;-0.90;99.90;;;;;;4169724;28;20108;-49
2021/12/06 02:37:00;;;;;;;35.27;32.73;;;-1.00;99.90;;;;;;4172003;28;20426;-52
2021/12/06 02:39:04;;;;;;;;;;;-1.10;99.90;;;;;;4165913;28;20310;-50
2021/12/06 02:41:08;;;;;;;35.40;33.10;;;-1.10;99.90;;;;;;4174682;28;19924;-49
2021/12/06 02:43:11;;;;;;;34.40;32.30;;;-1.00;99.90;;;;;;4174494;28;20040;-52
2021/12/06 02:45:24;;;;;;;35.08;33.30;;;-0.90;99.90;;;;;;4175006;28;20044;-51
2021/12/06 02:47:26;;;;;;;;;;;-1.10;99.90;;;;;;4174214;28;20033;-51
2021/12/06 02:49:29;;;;;;;28.98;27.70;;;-1.00;99.90;;;;;;4177513;28;19948;-51
2021/12/06 02:51:31;;;;;;;25.95;24.58;;;-0.90;99.90;;;;;;4192171;28;20090;-50
2021/12/06 02:53:36;;;;;;;23.05;21.95;;;-0.90;99.90;;;;;;4192714;28;20054;-51
2021/12/06 02:55:39;;;;;;;22.77;21.85;;;-0.90;99.90;;;;;;4174464;28;20041;-48
2021/12/06 02:57:45;;;;;;;23.13;22.02;;;-0.80;99.90;;;;;;4191804;28;20040;-51
2021/12/06 02:59:48;;;;;;;22.65;21.40;;;-0.80;99.90;;;;;;4191614;28;20041;-52
2021/12/06 03:02:06;;;;;;;21.30;20.30;;;-0.80;99.90;;;;;;4191402;28;20508;-50
2021/12/06 03:04:09;;;;;;;25.55;24.55;;;-0.60;99.90;;;;;;4190516;28;20497;-48
2021/12/06 03:06:13;;;;;;;27.38;25.70;;;-0.60;99.90;;;;;;4185770;28;20037;-48
2021/12/06 03:08:39;;;;;;;21.48;20.70;;;-0.70;99.90;;;;;;4193398;28;20546;-49
2021/12/06 03:10:41;;;;;;;18.00;17.08;;;-0.60;99.90;;;;;;4188541;28;20029;-49
2021/12/06 03:12:44;;;;;;;30.25;28.23;;;-0.30;99.90;;;;;;4188546;28;20726;-50
2021/12/06 03:14:49;;;;;;;34.28;32.17;;;-0.50;99.90;;;;;;4193339;28;20048;-50
2021/12/06 03:16:52;;;;;;;38.38;35.78;;;-0.90;99.90;;;;;;4189227;28;20040;-48
2021/12/06 03:18:55;;;;;;;35.17;33.00;;;-1.10;99.90;;;;;;4190030;28;20215;-51
2021/12/06 03:20:58;;;;;;;32.50;30.77;;;-1.10;99.90;;;;;;4188541;28;20064;-48
2021/12/06 03:23:00;;;;;;;41.42;38.50;;;-1.10;99.90;;;;;;4185137;28;20041;-52
2021/12/06 03:25:07;;;;;;;38.80;36.40;;;-1.30;99.90;;;;;;4191104;28;20162;-52
2021/12/06 03:27:10;;;;;;;38.53;36.05;;;-1.30;99.90;;;;;;4178203;28;20087;-50
2021/12/06 03:29:13;;;;;;;42.38;39.22;;;-1.30;99.90;;;;;;4195025;28;20039;-52
2021/12/06 03:31:16;;;;;;;42.10;39.22;;;-1.30;99.90;;;;;;4185448;28;20094;-52
2021/12/06 03:33:18;;;;;;;41.47;38.45;;;-1.40;99.90;;;;;;4187350;28;20071;-52
2021/12/06 03:35:20;;;;;;;42.00;39.30;;;-1.50;99.90;;;;;;4181101;28;20090;-52
2021/12/06 03:37:22;;;;;;;37.42;34.83;;;-1.50;99.90;;;;;;4189496;28;20109;-51
2021/12/06 03:39:32;;;;;;;37.63;35.20;;;-1.50;99.90;;;;;;4192588;28;20060;-52
2021/12/06 03:41:34;;;;;;;39.35;37.15;;;-1.50;99.90;;;;;;4189633;28;20036;-52
2021/12/06 03:43:37;;;;;;;37.13;34.90;;;-1.40;99.90;;;;;;4191393;28;20252;-50
2021/12/06 03:45:39;;;;;;;35.33;33.13;;;-1.30;99.90;;;;;;4190918;28;20043;-51
2021/12/06 03:47:42;;;;;;;37.13;34.63;;;-1.30;99.90;;;;;;4191221;28;20094;-50
2021/12/06 03:49:44;;;;;;;39.50;37.25;;;-1.30;99.90;;;;;;4190652;28;20094;-51
2021/12/06 03:51:46;;;;;;;;;;;-1.30;99.90;;;;;;4188443;28;20058;-51
2021/12/06 03:53:49;;;;;;;34.92;33.15;;;-1.20;99.90;;;;;;4192806;28;19924;-49
2021/12/06 03:55:51;;;;;;;30.80;29.85;;;-1.10;99.90;;;;;;4192198;28;20043;-50
2021/12/06 03:57:53;;;;;;;32.13;30.65;;;-0.80;99.90;;;;;;4191878;28;20041;-49
2021/12/06 03:59:55;;;;;;;35.85;34.08;;;-0.80;99.90;;;;;;4190202;28;20045;-52
2021/12/06 04:01:57;;;;;;;32.65;30.88;;;-0.90;99.90;;;;;;4190673;28;20559;-52
2021/12/06 04:04:02;;;;;;;36.60;34.55;;;-0.80;99.90;;;;;;4186812;28;20110;-50
2021/12/06 04:06:06;;;;;;;39.55;36.88;;;-0.90;99.90;;;;;;4190980;28;20032;-50
2021/12/06 04:08:09;;;;;;;33.70;30.98;;;-1.00;99.90;;;;;;4188850;28;20860;-50
2021/12/06 04:10:11;;;;;;;35.33;33.85;;;-1.00;99.90;;;;;;4190943;28;20502;-52
2021/12/06 04:12:14;;;;;;;;;;;-0.80;99.90;;;;;;4192243;28;20032;-51
2021/12/06 04:14:17;;;;;;;32.40;30.95;;;-0.80;99.90;;;;;;4183878;28;19921;-50
2021/12/06 04:16:19;;;;;;;31.90;30.15;;;-0.90;99.90;;;;;;4182340;28;20040;-50
2021/12/06 04:18:21;;;;;;;33.63;32.00;;;-0.90;99.90;;;;;;4189245;28;20093;-49
2021/12/06 04:20:24;;;;;;;32.72;31.35;;;-0.90;99.90;;;;;;4190021;28;20736;-52
2021/12/06 04:22:26;;;;;;;;;;;-0.90;99.90;;;;;;4191655;28;20041;-51
2021/12/06 04:24:29;;;;;;;32.90;31.15;;;-0.90;99.90;;;;;;4194894;28;19920;-51
2021/12/06 04:26:31;;;;;;;;;;;-0.90;99.90;;;;;;4194489;28;20044;-52
2021/12/06 04:28:35;;;;;;;36.08;34.25;;;-1.00;99.90;;;;;;4193492;28;19946;-51
2021/12/06 04:30:38;;;;;;;40.60;38.05;;;-1.00;99.90;;;;;;4189715;28;20044;-50
2021/12/06 04:32:40;;;;;;;33.97;32.50;;;-1.10;99.90;;;;;;4187945;28;20033;-50
2021/12/06 04:34:43;;;;;;;30.90;29.58;;;-1.00;99.90;;;;;;4194887;28;20040;-49
2021/12/06 04:36:46;;;;;;;;;;;-1.00;99.90;;;;;;4194372;28;20043;-52
2021/12/06 04:38:48;;;;;;;33.38;31.80;;;-1.10;99.90;;;;;;4194179;28;19932;-51
2021/12/06 04:40:50;;;;;;;33.08;31.30;;;-1.10;99.90;;;;;;4194003;28;20048;-50
2021/12/06 04:42:53;;;;;;;32.28;31.20;;;-1.00;99.90;;;;;;4196184;28;20044;-49
2021/12/06 04:44:56;;;;;;;32.85;31.08;;;-1.00;99.90;;;;;;4192650;28;20048;-52
2021/12/06 04:46:59;;;;;;;33.22;31.90;;;-1.00;99.90;;;;;;4207319;28;20048;-51
2021/12/06 04:49:02;;;;;;;31.15;29.80;;;-0.90;99.90;;;;;;4194467;28;20040;-50
2021/12/06 04:51:05;;;;;;;33.72;32.15;;;-0.70;99.90;;;;;;4160675;28;20053;-46
2021/12/06 04:53:15;;;;;;;31.00;29.92;;;-0.80;99.90;;;;;;4177427;28;20044;-46
2021/12/06 04:55:43;;;;;;;33.80;32.20;;;-0.80;99.90;;;;;;4177445;28;20588;-45
2021/12/06 04:57:46;;;;;;;32.47;31.17;;;-0.70;99.90;;;;;;4176428;28;20072;-49
2021/12/06 04:59:58;;;;;;;32.05;30.77;;;-0.70;99.90;;;;;;4175973;28;20064;-45
2021/12/06 05:02:05;;;;;;;32.22;30.85;;;-0.80;99.90;;;;;;4176897;28;20082;-47
2021/12/06 05:04:13;;;;;;;32.67;31.27;;;-0.90;99.90;;;;;;4178173;28;20087;-48
2021/12/06 05:06:20;;;;;;;32.88;31.48;;;-0.80;99.90;;;;;;4176734;28;20045;-47
2021/12/06 05:08:28;;;;;;;34.50;32.95;;;-0.90;99.90;;;;;;4176292;28;20538;-46
2021/12/06 05:10:31;;;;;;;33.00;30.65;;;-0.90;99.90;;;;;;4175827;28;20106;-47
2021/12/06 05:12:33;;;;;;;35.08;33.33;;;-1.00;99.90;;;;;;4159589;28;20099;-48
2021/12/06 05:14:36;;;;;;;36.25;34.17;;;-1.20;99.90;;;;;;4176337;28;20051;-47
2021/12/06 05:16:39;;;;;;;33.83;32.25;;;-1.20;99.90;;;;;;4159377;28;20049;-48
2021/12/06 05:18:41;;;;;;;;;;;-1.20;99.90;;;;;;4174239;28;20041;-46
2021/12/06 05:20:43;;;;;;;35.53;33.67;;;-1.20;99.90;;;;;;4170661;28;20364;-46
2021/12/06 05:22:47;;;;;;;34.60;33.08;;;-1.00;99.90;;;;;;4177156;28;20041;-48
2021/12/06 05:24:49;;;;;;;31.75;30.65;;;-1.00;99.90;;;;;;4177228;28;20370;-48
2021/12/06 05:26:51;;;;;;;32.45;31.20;;;-1.00;99.90;;;;;;4177533;28;20036;-46
2021/12/06 05:28:58;;;;;;;29.92;28.92;;;-0.90;99.90;;;;;;4178710;28;20041;-48
2021/12/06 05:31:01;;;;;;;32.63;31.13;;;-0.90;99.90;;;;;;4177348;28;20067;-46
2021/12/06 05:33:04;;;;;;;30.30;29.10;;;-0.90;99.90;;;;;;4176519;28;20033;-46
2021/12/06 05:35:08;;;;;;;33.22;31.75;;;-0.90;99.90;;;;;;4178403;28;20037;-47
2021/12/06 05:37:14;;;;;;;27.70;26.98;;;-1.00;99.90;;;;;;4156792;28;20132;-45
2021/12/06 05:39:16;;;;;;;30.73;29.73;;;-0.90;99.90;;;;;;4175754;28;20123;-49
2021/12/06 05:41:18;;;;;;;27.85;27.15;;;-0.80;99.90;;;;;;4178367;28;20037;-48
2021/12/06 05:43:21;;;;;;;30.42;29.73;;;-0.70;99.90;;;;;;4178064;28;20565;-47
2021/12/06 05:45:25;;;;;;;27.77;26.75;;;-0.70;99.90;;;;;;4169800;28;20044;-48
2021/12/06 05:47:28;;;;;;;32.63;31.60;;;-0.70;99.90;;;;;;4174888;28;20052;-46
2021/12/06 05:49:30;;;;;;;30.73;29.67;;;-0.80;99.90;;;;;;4179175;28;20037;-47
2021/12/06 05:51:32;;;;;;;27.52;26.92;;;-0.70;99.90;;;;;;4183855;28;20045;-48
2021/12/06 05:53:34;;;;;;;30.23;29.48;;;-0.80;99.90;;;;;;4189861;28;20052;-48
2021/12/06 05:55:37;;;;;;;28.83;27.80;;;-0.70;99.90;;;;;;4193848;28;20040;-48
2021/12/06 05:57:40;;;;;;;30.08;29.38;;;-0.60;99.90;;;;;;4192224;28;20048;-46
2021/12/06 05:59:42;;;;;;;30.73;29.08;;;-0.60;99.90;;;;;;4192764;28;20068;-46
2021/12/06 06:01:47;;;;;;;;;;;-0.70;99.90;;;;;;4192622;28;20036;-46
2021/12/06 06:03:49;;;;;;;29.95;28.70;;;-0.90;99.90;;;;;;4194835;28;19970;-49
2021/12/06 06:05:52;;;;;;;31.90;30.65;;;-0.90;99.90;;;;;;4192542;28;20454;-49
2021/12/06 06:07:55;;;;;;;31.13;29.95;;;-0.80;99.90;;;;;;4190561;28;20032;-48
2021/12/06 06:09:57;;;;;;;31.40;30.30;;;-0.80;99.90;;;;;;4193666;28;20062;-49
2021/12/06 06:11:59;;;;;;;27.92;27.15;;;-0.80;99.90;;;;;;4192415;28;20028;-48
2021/12/06 06:14:03;;;;;;;24.02;23.42;;;-0.80;99.90;;;;;;4191541;28;20060;-49
2021/12/06 06:16:05;;;;;;;23.23;22.63;;;-0.60;99.90;;;;;;4191676;28;20040;-46
2021/12/06 06:18:08;;;;;;;24.88;24.17;;;-0.60;99.90;;;;;;4191776;28;20036;-47
2021/12/06 06:20:17;;;;;;;27.52;26.55;;;-0.40;99.90;;;;;;4191925;28;20037;-45
2021/12/06 06:22:19;;;;;;;25.63;24.83;;;-0.30;99.90;;;;;;4192877;28;20730;-48
2021/12/06 06:24:22;;;;;;;;;;;-0.30;99.90;;;;;;4192776;28;20586;-45
2021/12/06 06:26:24;;;;;;;18.02;17.65;;;-0.40;99.90;;;;;;4180877;28;20290;-49
2021/12/06 06:28:26;;;;;;;21.73;21.08;;;-0.30;99.90;;;;;;4193336;28;20040;-49
2021/12/06 06:30:29;;;;;;;30.52;29.20;;;-0.30;99.90;;;;;;4193295;28;20041;-50
2021/12/06 06:32:32;;;;;;;33.83;32.33;;;-0.50;99.90;;;;;;4190072;28;20399;-51
2021/12/06 06:34:34;;;;;;;36.40;34.47;;;-0.70;99.90;;;;;;4193268;28;20082;-52
2021/12/06 06:36:37;;;;;;;34.15;31.67;;;-0.90;99.90;;;;;;4192263;28;20033;-51
2021/12/06 06:38:40;;;;;;;35.08;33.38;;;-1.10;99.90;;;;;;4193174;28;20178;-51
2021/12/06 06:40:42;;;;;;;31.63;30.73;;;-1.00;99.90;;;;;;4192357;28;20101;-50
2021/12/06 06:42:44;;;;;;;28.05;27.05;;;-1.00;99.90;;;;;;4193590;28;20044;-50
2021/12/06 06:44:46;;;;;;;;;;;-0.70;99.90;;;;;;4191257;28;20056;-50
2021/12/06 06:46:49;;;;;;;32.00;30.58;;;-0.50;99.90;;;;;;4192488;28;20433;-50
2021/12/06 06:48:51;;;;;;;29.35;28.40;;;-0.50;99.90;;;;;;4190497;28;20036;-51
2021/12/06 06:50:53;;;;;;;29.05;28.35;;;-0.30;99.90;;;;;;4190448;28;20435;-49
2021/12/06 06:52:56;;;;;;;30.83;29.25;;;-0.20;99.90;;;;;;4189351;28;20078;-48
2021/12/06 06:54:59;;;;;;;26.88;26.25;;;-0.10;99.90;;;;;;4193622;28;20040;-53
2021/12/06 06:57:03;;;;;;;16.50;15.93;;;-0.10;99.90;;;;;;4190600;28;20043;-50
2021/12/06 06:59:06;;;;;;;23.00;22.58;;;-0.10;99.90;;;;;;4191239;28;20577;-49
2021/12/06 07:01:09;;;;;;;20.48;20.08;;;0.00;99.90;;;;;;4190542;28;20045;-50
2021/12/06 07:03:11;;;;;;;17.05;16.65;;;0.20;99.90;;;;;;4192024;28;20049;-50
2021/12/06 07:05:14;;;;;;;10.38;10.27;;;0.20;99.90;;;;;;4191769;28;20805;-50
2021/12/06 07:07:16;;;;;;;9.90;9.80;;;0.30;99.90;;;;;;4181935;28;20037;-49
2021/12/06 07:09:19;;;;;;;10.82;10.73;;;0.40;99.90;;;;;;4191771;28;20044;-51
2021/12/06 07:11:22;;;;;;;12.73;12.63;;;0.50;99.90;;;;;;4192642;28;20370;-48
2021/12/06 07:13:27;;;;;;;12.63;12.50;;;0.50;99.90;;;;;;4191473;28;20040;-51
2021/12/06 07:15:33;;;;;;;7.72;7.55;;;0.60;99.90;;;;;;4192245;28;20075;-51
2021/12/06 07:17:35;;;;;;;8.73;8.48;;;0.60;99.90;;;;;;4190934;28;20040;-51
2021/12/06 07:19:37;;;;;;;5.72;5.72;;;0.60;99.90;;;;;;4174399;28;20048;-51
2021/12/06 07:21:40;;;;;;;9.45;9.15;;;0.70;99.90;;;;;;4190557;28;20075;-50
2021/12/06 07:23:42;;;;;;;10.00;9.77;;;0.70;99.90;;;;;;4192283;28;20051;-51
2021/12/06 07:25:44;;;;;;;12.82;11.77;;;0.70;99.90;;;;;;4191589;28;20051;-50
2021/12/06 07:27:48;;;;;;;17.42;15.98;;;0.50;99.90;;;;;;4194012;28;20037;-51
2021/12/06 07:29:50;;;;;;;20.55;18.88;;;0.40;99.90;;;;;;4193196;28;20439;-52
2021/12/06 07:31:52;;;;;;;26.80;24.88;;;0.10;99.90;;;;;;4192641;28;20032;-50
2021/12/06 07:33:54;;;;;;;33.72;31.88;;;-0.10;99.90;;;;;;4190961;28;20036;-49
2021/12/06 07:35:56;;;;;;;34.05;32.35;;;-0.30;99.90;;;;;;4191083;28;20041;-51
2021/12/06 07:38:00;;;;;;;34.20;32.33;;;-0.40;99.90;;;;;;4192743;28;20048;-52
2021/12/06 07:40:06;;;;;;;28.70;27.33;;;-0.40;99.90;;;;;;4189253;28;20068;-50
2021/12/06 07:42:11;;;;;;;22.75;22.02;;;-0.20;99.90;;;;;;4190350;28;20040;-50
2021/12/06 07:44:13;;;;;;;22.80;21.90;;;0.00;99.90;;;;;;4192809;28;20047;-50
2021/12/06 07:46:16;;;;;;;20.40;20.02;;;0.30;99.90;;;;;;4190364;28;20091;-51
2021/12/06 07:48:18;;;;;;;;;;;0.60;99.90;;;;;;4192287;28;20041;-50
2021/12/06 07:50:21;;;;;;;28.55;26.55;;;0.60;99.90;;;;;;4190332;28;19955;-51
2021/12/06 07:52:24;;;;;;;26.00;24.73;;;0.50;99.90;;;;;;4191214;28;20436;-49
2021/12/06 07:54:26;;;;;;;27.08;25.60;;;0.40;99.90;;;;;;4191343;28;20033;-51
2021/12/06 07:56:28;;;;;;;32.05;29.98;;;0.40;99.90;;;;;;4192484;28;20067;-51
2021/12/06 07:58:30;;;;;;;34.13;31.70;;;0.40;99.90;;;;;;4187981;28;20037;-51
2021/12/06 08:00:36;;;;;;;32.15;29.15;;;0.30;99.90;;;;;;4176857;28;20099;-51
2021/12/06 08:02:38;;;;;;;20.95;19.73;;;0.30;99.90;;;;;;4195123;28;20042;-51
2021/12/06 08:04:48;;;;;;;17.95;17.35;;;0.40;99.90;;;;;;4194538;28;20669;-51
2021/12/06 08:06:50;;;;;;;20.67;19.60;;;0.40;99.90;;;;;;4194493;28;20546;-52
2021/12/06 08:08:53;;;;;;;20.27;19.30;;;0.50;99.90;;;;;;4193728;28;20064;-51
2021/12/06 08:11:12;;;;;;;21.35;20.42;;;0.60;99.90;;;;;;4193887;28;20032;-52
2021/12/06 08:13:18;;;;;;;21.95;21.15;;;0.70;99.90;;;;;;4195004;28;20040;-51
2021/12/06 08:15:20;;;;;;;22.45;21.05;;;0.70;99.90;;;;;;4194980;28;20044;-54
2021/12/06 08:17:25;;;;;;;20.95;20.35;;;0.70;99.90;;;;;;4196370;28;20036;-52
2021/12/06 08:19:27;;;;;;;28.88;27.30;;;0.90;99.90;;;;;;4192614;28;20047;-54
2021/12/06 08:21:30;;;;;;;27.35;26.10;;;1.00;99.90;;;;;;4196273;28;20068;-53
2021/12/06 08:23:32;;;;;;;23.20;22.20;;;1.10;99.90;;;;;;4194779;28;20036;-53
2021/12/06 08:25:35;;;;;;;21.25;20.60;;;1.20;99.90;;;;;;4194085;28;20071;-53
2021/12/06 08:27:37;;;;;;;13.68;13.32;;;1.40;99.90;;;;;;4193715;28;20045;-53
2021/12/06 08:29:40;;;;;;;8.77;8.38;;;1.60;99.90;;;;;;4195127;28;20037;-53
2021/12/06 08:31:44;;;;;;;7.95;7.85;;;1.90;99.90;;;;;;4194048;28;20051;-53
2021/12/06 08:33:47;;;;;;;8.13;8.02;;;2.20;99.90;;;;;;4177143;28;20071;-52
2021/12/06 08:35:52;;;;;;;6.10;5.95;;;2.50;99.90;;;;;;4193361;28;20032;-53
2021/12/06 08:37:56;;;;;;;7.28;7.18;;;2.70;99.90;;;;;;4192922;28;20044;-53
2021/12/06 08:39:58;;;;;;;8.30;7.88;;;2.70;99.90;;;;;;4195096;28;20094;-53
2021/12/06 08:42:01;;;;;;;6.57;6.47;;;2.80;99.90;;;;;;4187075;28;20044;-52
2021/12/06 08:44:03;;;;;;;4.78;4.78;;;2.80;99.90;;;;;;4185141;28;20040;-53
2021/12/06 08:46:08;;;;;;;;;;;2.80;99.90;;;;;;4194438;28;20041;-52
2021/12/06 08:48:10;;;;;;;4.22;4.22;;;2.90;99.90;;;;;;4194301;28;20376;-52
2021/12/06 08:50:16;;;;;;;4.68;4.68;;;3.00;99.90;;;;;;4194604;28;20040;-52
2021/12/06 08:52:19;;;;;;;4.18;4.18;;;3.10;99.90;;;;;;4193036;28;20039;-51
2021/12/06 08:54:26;;;;;;;4.30;4.30;;;3.20;99.90;;;;;;4194483;28;20037;-51
2021/12/06 08:56:29;;;;;;;6.10;6.00;;;3.20;99.90;;;;;;4185701;28;20036;-53
2021/12/06 08:58:31;;;;;;;4.47;4.47;;;3.30;99.90;;;;;;4194285;28;20037;-52
2021/12/06 09:00:35;;;;;;;8.20;8.00;;;3.40;99.90;;;;;;4194553;28;20106;-52
2021/12/06 09:02:38;;;;;;;10.80;10.40;;;3.40;99.90;;;;;;4193542;28;20060;-53
2021/12/06 09:04:57;;;;;;;8.68;8.35;;;3.30;99.90;;;;;;4193154;28;20029;-52
2021/12/06 09:07:00;;;;;;;9.35;8.95;;;3.30;99.90;;;;;;4191316;28;20033;-52
2021/12/06 09:09:07;;;;;;;6.55;6.45;;;3.20;99.90;;;;;;4184083;28;20037;-51
2021/12/06 09:11:10;;;;;;;5.22;5.13;;;3.30;99.90;;;;;;4195324;28;20040;-52
2021/12/06 09:13:13;;;;;;;7.07;6.90;;;3.30;99.90;;;;;;4193341;28;20041;-52
2021/12/06 09:15:18;;;;;;;6.47;6.38;;;3.40;99.90;;;;;;4192361;28;20120;-53
2021/12/06 09:17:22;;;;;;;7.25;7.15;;;3.50;99.90;;;;;;4194104;28;20033;-54
2021/12/06 09:19:24;;;;;;;;;;;3.50;99.90;;;;;;4192166;28;20106;-51
2021/12/06 09:21:27;;;;;;;4.90;4.80;;;3.60;99.90;;;;;;4193319;28;19924;-51
2021/12/06 09:23:29;;;;;;;4.43;4.32;;;3.70;99.90;;;;;;4193899;28;20672;-52
2021/12/06 09:25:34;;;;;;;3.55;3.55;;;3.80;99.90;;;;;;4194016;28;20044;-53
2021/12/06 09:27:38;;;;;;;3.85;3.75;;;3.80;99.90;;;;;;4193944;28;20041;-53
2021/12/06 09:29:40;;;;;;;6.28;6.07;;;3.90;99.90;;;;;;4192782;28;20062;-53
2021/12/06 09:31:42;;;;;;;6.90;6.72;;;4.00;99.90;;;;;;4194908;28;20443;-53
2021/12/06 09:33:44;;;;;;;5.03;4.93;;;4.10;99.90;;;;;;4193969;28;20047;-53
2021/12/06 09:35:48;;;;;;;5.72;5.43;;;4.20;99.90;;;;;;4193828;28;20036;-52
2021/12/06 09:37:51;;;;;;;5.65;5.55;;;4.40;99.90;;;;;;4194123;28;20052;-52
2021/12/06 09:40:00;;;;;;;5.80;5.70;;;4.50;99.90;;;;;;4193730;28;20389;-52
2021/12/06 09:42:04;;;;;;;4.70;4.60;;;4.60;99.90;;;;;;4193747;28;20067;-52
2021/12/06 09:44:09;;;;;;;3.28;3.28;;;4.60;99.90;;;;;;4192613;28;20044;-53
2021/12/06 09:46:12;;;;;;;3.80;3.70;;;4.70;99.90;;;;;;4194003;28;20066;-53
2021/12/06 09:48:16;;;;;;;3.78;3.67;;;4.80;99.90;;;;;;4192482;28;20116;-52
2021/12/06 09:50:24;;;;;;;2.42;2.33;;;4.90;99.90;;;;;;4194079;28;20442;-52
2021/12/06 09:52:26;;;;;;;3.75;3.70;;;5.00;99.90;;;;;;4192785;28;20029;-52
2021/12/06 09:54:33;;;;;;;4.38;4.28;;;5.10;99.90;;;;;;4180119;28;20033;-52
2021/12/06 09:56:41;;;;;;;3.08;3.08;;;5.10;99.90;;;;;;4192907;28;20043;-52
2021/12/06 09:58:44;;;;;;;3.05;3.05;;;5.10;99.90;;;;;;4193807;28;20032;-53
2021/12/06 10:00:51;;;;;;;4.00;3.05;;;5.10;99.90;;;;;;4194275;28;20393;-52
2021/12/06 10:02:53;;;;;;;2.50;2.40;;;5.10;99.90;;;;;;4180921;28;20469;-52
2021/12/06 10:04:56;;;;;;;7.57;7.47;;;5.10;99.90;;;;;;4194084;28;20523;-52
2021/12/06 10:07:00;;;;;;;4.50;4.50;;;5.10;99.90;;;;;;4174688;28;20037;-53
2021/12/06 10:09:06;;;;;;;4.63;4.53;;;5.10;99.90;;;;;;4191732;28;20059;-53
2021/12/06 10:11:08;;;;;;;4.45;4.45;;;5.10;99.90;;;;;;4191989;28;20033;-53
2021/12/06 10:13:11;;;;;;;4.70;4.60;;;5.10;99.90;;;;;;4191953;28;20028;-52
2021/12/06 10:15:13;;;;;;;3.75;3.75;;;5.10;99.90;;;;;;4193174;28;20044;-51
2021/12/06 10:17:17;;;;;;;4.35;4.35;;;5.10;99.90;;;;;;4193804;28;20133;-51
2021/12/06 10:19:21;;;;;;;3.50;3.50;;;5.20;99.90;;;;;;4190307;28;20041;-52
2021/12/06 10:21:24;;;;;;;3.20;3.20;;;5.30;99.90;;;;;;4191147;28;20036;-53
2021/12/06 10:23:26;;;;;;;;;;;5.50;99.90;;;;;;4192298;28;20040;-53
2021/12/06 10:25:42;;;;;;;3.28;3.28;;;5.60;99.90;;;;;;4193962;28;19960;-51
2021/12/06 10:28:03;;;;;;;13.35;12.02;;;5.60;99.90;;;;;;4191299;28;20037;-53
2021/12/06 10:30:10;;;;;;;4.93;4.82;;;5.60;99.90;;;;;;4191484;28;20036;-52
2021/12/06 10:32:27;;;;;;;3.50;3.50;;;5.60;99.90;;;;;;4193080;28;20656;-50
2021/12/06 10:34:29;;;;;;;3.25;3.25;;;5.50;99.90;;;;;;4192521;28;20043;-53
2021/12/06 10:36:34;;;;;;;3.85;3.83;;;5.50;99.90;;;;;;4191822;28;20048;-52
2021/12/06 10:38:39;;;;;;;3.00;3.00;;;5.60;99.90;;;;;;4192122;28;20895;-52
2021/12/06 10:40:41;;;;;;;3.38;3.38;;;5.60;99.90;;;;;;4158006;28;20589;-52
2021/12/06 10:42:46;;;;;;;3.08;3.08;;;5.50;99.90;;;;;;4190423;28;20032;-51
2021/12/06 10:44:51;;;;;;;2.55;2.55;;;5.50;99.90;;;;;;4191041;28;20447;-52
2021/12/06 10:46:53;;;;;;;5.15;2.97;;;5.50;99.90;;;;;;4190656;28;20083;-52
2021/12/06 10:48:59;;;;;;;3.13;3.13;;;5.50;99.90;;;;;;4192246;28;20074;-53
2021/12/06 10:51:13;;;;;;;2.67;2.67;;;5.60;99.90;;;;;;4158952;28;20137;-53
2021/12/06 10:53:15;;;;;;;7.07;3.80;;;5.60;99.90;;;;;;4174643;28;20032;-50